sensor_id;sensor_type;location;lat;lon;timestamp;pressure;altitude;pressure_sealevel;temperature;humidity
76195;BME280;64964;48.694;21.206;2022-11-15T00:01:45;98474.97;;;3.60;82.44
76195;BME280;64964;48.694;21.206;2022-11-15T00:04:10;98477.59;;;3.60;82.31
76195;BME280;64964;48.694;21.206;2022-11-15T00:06:36;98479.13;;;3.62;82.22
76195;BME280;64964;48.694;21.206;2022-11-15T00:09:02;98472.94;;;3.63;82.10
76195;BME280;64964;48.694;21.206;2022-11-15T00:11:27;98466.88;;;3.63;82.48
76195;BME280;64964;48.694;21.206;2022-11-15T00:13:57;98467.84;;;3.62;82.31
76195;BME280;64964;48.694;21.206;2022-11-15T00:16:23;98468.78;;;3.61;82.33
76195;BME280;64964;48.694;21.206;2022-11-15T00:18:48;98465.34;;;3.60;82.21
76195;BME280;64964;48.694;21.206;2022-11-15T00:21:15;98468.78;;;3.61;82.81
76195;BME280;64964;48.694;21.206;2022-11-15T00:23:40;98469.63;;;3.61;82.40
76195;BME280;64964;48.694;21.206;2022-11-15T00:26:07;98469.50;;;3.63;82.58
76195;BME280;64964;48.694;21.206;2022-11-15T00:28:35;98471.28;;;3.62;83.32
76195;BME280;64964;48.694;21.206;2022-11-15T00:31:02;98459.88;;;3.63;82.56
76195;BME280;64964;48.694;21.206;2022-11-15T00:33:28;98459.16;;;3.61;82.49
76195;BME280;64964;48.694;21.206;2022-11-15T00:35:53;98457.16;;;3.65;82.28
76195;BME280;64964;48.694;21.206;2022-11-15T00:38:22;98452.03;;;3.63;82.45
76195;BME280;64964;48.694;21.206;2022-11-15T00:40:47;98453.81;;;3.63;82.24
76195;BME280;64964;48.694;21.206;2022-11-15T00:43:13;98450.38;;;3.62;82.37
76195;BME280;64964;48.694;21.206;2022-11-15T00:45:38;98447.75;;;3.62;82.55
76195;BME280;64964;48.694;21.206;2022-11-15T00:48:04;98451.09;;;3.64;82.22
76195;BME280;64964;48.694;21.206;2022-11-15T00:50:29;98441.34;;;3.66;82.12
76195;BME280;64964;48.694;21.206;2022-11-15T00:52:55;98440.53;;;3.66;82.60
76195;BME280;64964;48.694;21.206;2022-11-15T00:55:20;98441.34;;;3.66;83.45
76195;BME280;64964;48.694;21.206;2022-11-15T00:57:46;98432.19;;;3.72;82.71
76195;BME280;64964;48.694;21.206;2022-11-15T01:00:12;98435.31;;;3.77;82.66
76195;BME280;64964;48.694;21.206;2022-11-15T01:02:38;98429.84;;;3.80;82.78
76195;BME280;64964;48.694;21.206;2022-11-15T01:05:04;98427.13;;;3.82;82.91
76195;BME280;64964;48.694;21.206;2022-11-15T01:07:29;98422.50;;;3.85;83.05
76195;BME280;64964;48.694;21.206;2022-11-15T01:09:54;98428.34;;;3.89;83.22
76195;BME280;64964;48.694;21.206;2022-11-15T01:12:20;98419.28;;;3.93;83.03
76195;BME280;64964;48.694;21.206;2022-11-15T01:14:45;98420.72;;;3.97;82.87
76195;BME280;64964;48.694;21.206;2022-11-15T01:17:11;98418.69;;;4.00;82.52
76195;BME280;64964;48.694;21.206;2022-11-15T01:19:36;98415.84;;;4.04;82.75
76195;BME280;64964;48.694;21.206;2022-11-15T01:22:02;98414.19;;;4.03;83.25
76195;BME280;64964;48.694;21.206;2022-11-15T01:24:27;98420.97;;;4.05;82.84
76195;BME280;64964;48.694;21.206;2022-11-15T01:26:53;98415.72;;;4.05;82.72
76195;BME280;64964;48.694;21.206;2022-11-15T01:29:18;98405.03;;;4.08;82.68
76195;BME280;64964;48.694;21.206;2022-11-15T01:31:44;98401.47;;;4.09;82.46
76195;BME280;64964;48.694;21.206;2022-11-15T01:34:09;98397.91;;;4.10;82.36
76195;BME280;64964;48.694;21.206;2022-11-15T01:36:35;98396.13;;;4.11;82.24
76195;BME280;64964;48.694;21.206;2022-11-15T01:39:00;98392.91;;;4.07;82.09
76195;BME280;64964;48.694;21.206;2022-11-15T01:41:31;98401.59;;;4.08;82.45
76195;BME280;64964;48.694;21.206;2022-11-15T01:47:07;98395.16;;;4.00;82.90
76195;BME280;64964;48.694;21.206;2022-11-15T01:49:35;98391.63;;;4.02;82.50
76195;BME280;64964;48.694;21.206;2022-11-15T01:52:05;98392.78;;;3.97;82.74
76195;BME280;64964;48.694;21.206;2022-11-15T01:54:31;98392.06;;;3.95;82.73
76195;BME280;64964;48.694;21.206;2022-11-15T01:57:09;98394.91;;;3.92;83.12
76195;BME280;64964;48.694;21.206;2022-11-15T01:59:36;98392.56;;;3.89;82.81
76195;BME280;64964;48.694;21.206;2022-11-15T02:02:02;98388.16;;;3.90;82.36
76195;BME280;64964;48.694;21.206;2022-11-15T02:04:29;98375.66;;;3.82;82.46
76195;BME280;64964;48.694;21.206;2022-11-15T02:06:56;98385.88;;;3.85;82.87
76195;BME280;64964;48.694;21.206;2022-11-15T02:09:22;98378.88;;;3.86;83.07
76195;BME280;64964;48.694;21.206;2022-11-15T02:11:48;98384.09;;;3.86;82.26
76195;BME280;64964;48.694;21.206;2022-11-15T02:14:16;98380.75;;;3.84;82.68
76195;BME280;64964;48.694;21.206;2022-11-15T02:30:15;98369.44;;;3.72;82.53
76195;BME280;64964;48.694;21.206;2022-11-15T02:32:47;98365.44;;;3.68;82.39
76195;BME280;64964;48.694;21.206;2022-11-15T02:37:58;98374.69;;;3.61;82.41
76195;BME280;64964;48.694;21.206;2022-11-15T02:40:45;98374.31;;;3.54;82.75
76195;BME280;64964;48.694;21.206;2022-11-15T02:43:17;98369.19;;;3.53;82.38
76195;BME280;64964;48.694;21.206;2022-11-15T02:48:43;98373.13;;;3.47;82.34
76195;BME280;64964;48.694;21.206;2022-11-15T02:51:09;98365.28;;;3.47;82.28
76195;BME280;64964;48.694;21.206;2022-11-15T02:53:35;98356.47;;;3.48;82.18
76195;BME280;64964;48.694;21.206;2022-11-15T02:56:01;98367.91;;;3.47;82.58
76195;BME280;64964;48.694;21.206;2022-11-15T02:58:40;98359.94;;;3.48;82.37
76195;BME280;64964;48.694;21.206;2022-11-15T03:04:40;98360.97;;;3.46;82.96
76195;BME280;64964;48.694;21.206;2022-11-15T03:13:24;98361.56;;;3.38;82.85
76195;BME280;64964;48.694;21.206;2022-11-15T03:16:00;98353.72;;;3.38;82.63
76195;BME280;64964;48.694;21.206;2022-11-15T03:18:32;98352.78;;;3.39;82.55
76195;BME280;64964;48.694;21.206;2022-11-15T03:21:04;98359.06;;;3.37;82.04
76195;BME280;64964;48.694;21.206;2022-11-15T03:23:31;98355.00;;;3.33;82.03
76195;BME280;64964;48.694;21.206;2022-11-15T03:25:58;98355.16;;;3.31;82.01
76195;BME280;64964;48.694;21.206;2022-11-15T03:28:29;98361.53;;;3.27;81.80
76195;BME280;64964;48.694;21.206;2022-11-15T03:30:58;98360.09;;;3.23;81.62
76195;BME280;64964;48.694;21.206;2022-11-15T03:33:27;98360.31;;;3.20;81.34
76195;BME280;64964;48.694;21.206;2022-11-15T03:35:54;98348.31;;;3.17;81.47
76195;BME280;64964;48.694;21.206;2022-11-15T03:38:25;98360.81;;;3.14;81.39
76195;BME280;64964;48.694;21.206;2022-11-15T03:40:58;98353.28;;;3.09;81.17
76195;BME280;64964;48.694;21.206;2022-11-15T03:43:43;98346.75;;;3.04;81.00
76195;BME280;64964;48.694;21.206;2022-11-15T03:49:25;98343.84;;;2.95;81.14
76195;BME280;64964;48.694;21.206;2022-11-15T03:51:53;98337.94;;;2.93;81.03
76195;BME280;64964;48.694;21.206;2022-11-15T03:54:21;98346.09;;;2.89;80.99
76195;BME280;64964;48.694;21.206;2022-11-15T03:56:46;98348.09;;;2.85;80.97
76195;BME280;64964;48.694;21.206;2022-11-15T03:59:12;98342.59;;;2.77;81.05
76195;BME280;64964;48.694;21.206;2022-11-15T04:01:37;98330.09;;;2.69;81.07
76195;BME280;64964;48.694;21.206;2022-11-15T04:04:02;98329.50;;;2.66;81.07
76195;BME280;64964;48.694;21.206;2022-11-15T04:06:28;98326.19;;;2.64;81.05
76195;BME280;64964;48.694;21.206;2022-11-15T04:08:53;98318.56;;;2.61;81.08
76195;BME280;64964;48.694;21.206;2022-11-15T04:11:19;98324.81;;;2.58;81.34
76195;BME280;64964;48.694;21.206;2022-11-15T04:13:44;98320.69;;;2.56;81.09
76195;BME280;64964;48.694;21.206;2022-11-15T04:16:09;98314.09;;;2.50;80.86
76195;BME280;64964;48.694;21.206;2022-11-15T04:18:35;98321.31;;;2.46;80.74
76195;BME280;64964;48.694;21.206;2022-11-15T04:21:00;98320.72;;;2.43;80.69
76195;BME280;64964;48.694;21.206;2022-11-15T04:23:44;98325.44;;;2.38;80.78
76195;BME280;64964;48.694;21.206;2022-11-15T04:26:28;98313.53;;;2.34;80.73
76195;BME280;64964;48.694;21.206;2022-11-15T04:28:54;98318.06;;;2.32;80.97
76195;BME280;64964;48.694;21.206;2022-11-15T04:31:37;98317.66;;;2.25;80.84
76195;BME280;64964;48.694;21.206;2022-11-15T04:34:03;98310.16;;;2.20;80.80
76195;BME280;64964;48.694;21.206;2022-11-15T04:36:28;98301.00;;;2.15;80.90
76195;BME280;64964;48.694;21.206;2022-11-15T04:39:12;98300.59;;;2.08;81.00
76195;BME280;64964;48.694;21.206;2022-11-15T04:41:37;98304.47;;;2.03;80.91
76195;BME280;64964;48.694;21.206;2022-11-15T04:44:03;98292.59;;;1.98;81.15
76195;BME280;64964;48.694;21.206;2022-11-15T04:46:28;98289.38;;;1.95;81.33
76195;BME280;64964;48.694;21.206;2022-11-15T04:48:54;98289.47;;;1.93;81.51
76195;BME280;64964;48.694;21.206;2022-11-15T04:51:20;98288.53;;;1.94;81.46
76195;BME280;64964;48.694;21.206;2022-11-15T04:53:45;98287.72;;;1.94;81.51
76195;BME280;64964;48.694;21.206;2022-11-15T04:56:11;98289.47;;;1.93;81.50
76195;BME280;64964;48.694;21.206;2022-11-15T04:58:37;98294.69;;;1.93;81.32
76195;BME280;64964;48.694;21.206;2022-11-15T05:01:20;98288.03;;;1.89;81.68
76195;BME280;64964;48.694;21.206;2022-11-15T05:03:46;98284.59;;;1.89;81.52
76195;BME280;64964;48.694;21.206;2022-11-15T05:06:30;98294.69;;;1.93;81.30
76195;BME280;64964;48.694;21.206;2022-11-15T05:08:56;98288.53;;;1.94;81.21
76195;BME280;64964;48.694;21.206;2022-11-15T05:11:22;98290.31;;;1.94;81.19
76195;BME280;64964;48.694;21.206;2022-11-15T05:13:48;98295.75;;;1.91;81.34
76195;BME280;64964;48.694;21.206;2022-11-15T05:16:13;98292.28;;;1.90;81.34
76195;BME280;64964;48.694;21.206;2022-11-15T05:18:39;98289.69;;;1.90;81.34
76195;BME280;64964;48.694;21.206;2022-11-15T05:21:11;98291.34;;;1.91;81.34
76195;BME280;64964;48.694;21.206;2022-11-15T05:23:37;98288.75;;;1.91;81.47
76195;BME280;64964;48.694;21.206;2022-11-15T05:26:04;98285.22;;;1.92;81.10
76195;BME280;64964;48.694;21.206;2022-11-15T05:28:30;98279.25;;;1.90;81.25
76195;BME280;64964;48.694;21.206;2022-11-15T05:31:06;98281.16;;;1.88;81.35
76195;BME280;64964;48.694;21.206;2022-11-15T05:33:33;98283.78;;;1.88;81.39
76195;BME280;64964;48.694;21.206;2022-11-15T05:36:04;98277.69;;;1.88;81.58
76195;BME280;64964;48.694;21.206;2022-11-15T05:38:31;98280.41;;;1.86;81.64
76195;BME280;64964;48.694;21.206;2022-11-15T05:40:56;98275.22;;;1.86;81.31
76195;BME280;64964;48.694;21.206;2022-11-15T05:43:23;98280.31;;;1.88;81.42
76195;BME280;64964;48.694;21.206;2022-11-15T05:45:49;98271.34;;;1.79;81.72
76195;BME280;64964;48.694;21.206;2022-11-15T05:48:14;98276.69;;;1.78;81.71
76195;BME280;64964;48.694;21.206;2022-11-15T05:50:43;98274.28;;;1.74;81.63
76195;BME280;64964;48.694;21.206;2022-11-15T05:53:12;98257.97;;;1.60;81.85
76195;BME280;64964;48.694;21.206;2022-11-15T05:55:39;98266.09;;;1.68;81.68
76195;BME280;64964;48.694;21.206;2022-11-15T05:58:06;98272.31;;;1.78;81.45
76195;BME280;64964;48.694;21.206;2022-11-15T06:00:32;98282.53;;;1.81;81.67
76195;BME280;64964;48.694;21.206;2022-11-15T06:02:57;98288.34;;;1.85;81.60
76195;BME280;64964;48.694;21.206;2022-11-15T06:05:23;98286.47;;;1.87;81.84
76195;BME280;64964;48.694;21.206;2022-11-15T06:07:48;98288.03;;;1.89;81.76
76195;BME280;64964;48.694;21.206;2022-11-15T06:10:14;98281.88;;;1.90;81.80
76195;BME280;64964;48.694;21.206;2022-11-15T06:12:39;98280.84;;;1.93;81.63
76195;BME280;64964;48.694;21.206;2022-11-15T06:15:05;98272.19;;;1.92;81.63
76195;BME280;64964;48.694;21.206;2022-11-15T06:17:30;98282.88;;;2.00;81.48
76195;BME280;64964;48.694;21.206;2022-11-15T06:19:56;98276.63;;;2.03;81.56
76195;BME280;64964;48.694;21.206;2022-11-15T06:22:21;98277.38;;;2.05;81.50
76195;BME280;64964;48.694;21.206;2022-11-15T06:24:46;98276.41;;;2.06;81.95
76195;BME280;64964;48.694;21.206;2022-11-15T06:27:12;98272.84;;;2.07;81.92
76195;BME280;64964;48.694;21.206;2022-11-15T06:29:37;98277.03;;;2.10;81.84
76195;BME280;64964;48.694;21.206;2022-11-15T06:32:03;98277.53;;;2.15;81.78
76195;BME280;64964;48.694;21.206;2022-11-15T06:34:29;98281.38;;;2.22;81.65
76195;BME280;64964;48.694;21.206;2022-11-15T06:36:54;98283.53;;;2.28;81.75
76195;BME280;64964;48.694;21.206;2022-11-15T06:39:19;98282.56;;;2.29;82.11
76195;BME280;64964;48.694;21.206;2022-11-15T06:41:45;98284.84;;;2.34;82.13
76195;BME280;64964;48.694;21.206;2022-11-15T06:44:11;98281.06;;;2.38;81.81
76195;BME280;64964;48.694;21.206;2022-11-15T06:46:36;98277.22;;;2.43;81.97
76195;BME280;64964;48.694;21.206;2022-11-15T06:49:02;98269.03;;;2.48;82.02
76195;BME280;64964;48.694;21.206;2022-11-15T06:51:27;98274.41;;;2.58;81.79
76195;BME280;64964;48.694;21.206;2022-11-15T06:53:52;98270.19;;;2.68;81.79
76195;BME280;64964;48.694;21.206;2022-11-15T06:56:18;98272.13;;;2.77;81.65
76195;BME280;64964;48.694;21.206;2022-11-15T06:58:43;98265.47;;;2.84;81.73
76195;BME280;64964;48.694;21.206;2022-11-15T07:01:11;98245.31;;;2.86;82.47
76195;BME280;64964;48.694;21.206;2022-11-15T07:03:39;98269.94;;;3.06;81.93
76195;BME280;64964;48.694;21.206;2022-11-15T07:06:06;98262.22;;;3.16;81.49
76195;BME280;64964;48.694;21.206;2022-11-15T07:08:31;98262.00;;;3.30;81.27
76195;BME280;64964;48.694;21.206;2022-11-15T07:11:01;98252.06;;;3.35;81.08
76195;BME280;64964;48.694;21.206;2022-11-15T07:13:29;98269.03;;;3.52;81.59
76195;BME280;64964;48.694;21.206;2022-11-15T07:15:54;98267.00;;;3.67;80.88
76195;BME280;64964;48.694;21.206;2022-11-15T07:18:20;98269.50;;;3.80;81.06
76195;BME280;64964;48.694;21.206;2022-11-15T07:20:46;98257.84;;;3.95;80.98
76195;BME280;64964;48.694;21.206;2022-11-15T07:23:11;98263.00;;;4.17;80.53
76195;BME280;64964;48.694;21.206;2022-11-15T07:25:37;98254.91;;;4.32;80.99
76195;BME280;64964;48.694;21.206;2022-11-15T07:28:03;98264.97;;;4.47;80.58
76195;BME280;64964;48.694;21.206;2022-11-15T07:30:28;98261.81;;;4.65;80.10
76195;BME280;64964;48.694;21.206;2022-11-15T07:32:56;98258.19;;;4.77;80.00
76195;BME280;64964;48.694;21.206;2022-11-15T07:35:22;98262.03;;;4.94;79.76
76195;BME280;64964;48.694;21.206;2022-11-15T07:40:57;98249.28;;;5.31;79.86
76195;BME280;64964;48.694;21.206;2022-11-15T07:43:22;98244.50;;;5.46;79.46
76195;BME280;64964;48.694;21.206;2022-11-15T07:45:48;98253.44;;;5.64;79.08
76195;BME280;64964;48.694;21.206;2022-11-15T07:48:13;98252.34;;;5.77;79.03
76195;BME280;64964;48.694;21.206;2022-11-15T07:50:42;98252.84;;;5.91;78.81
76195;BME280;64964;48.694;21.206;2022-11-15T07:53:08;98254.56;;;6.02;78.84
76195;BME280;64964;48.694;21.206;2022-11-15T07:55:34;98252.94;;;6.20;78.71
76195;BME280;64964;48.694;21.206;2022-11-15T07:58:03;98239.41;;;6.35;78.33
76195;BME280;64964;48.694;21.206;2022-11-15T08:00:29;98252.00;;;6.60;77.72
76195;BME280;64964;48.694;21.206;2022-11-15T08:03:21;98237.47;;;6.76;75.95
76195;BME280;64964;48.694;21.206;2022-11-15T08:05:50;98238.28;;;6.95;76.85
76195;BME280;64964;48.694;21.206;2022-11-15T08:08:16;98240.03;;;7.14;76.53
76195;BME280;64964;48.694;21.206;2022-11-15T08:10:41;98230.91;;;7.65;76.09
76195;BME280;64964;48.694;21.206;2022-11-15T08:13:09;98229.69;;;8.33;74.51
76195;BME280;64964;48.694;21.206;2022-11-15T08:15:35;98226.72;;;9.07;74.00
76195;BME280;64964;48.694;21.206;2022-11-15T08:18:04;98225.25;;;9.73;69.87
76195;BME280;64964;48.694;21.206;2022-11-15T08:20:31;98229.63;;;10.33;70.22
76195;BME280;64964;48.694;21.206;2022-11-15T08:23:01;98232.31;;;10.65;68.95
76195;BME280;64964;48.694;21.206;2022-11-15T08:25:28;98237.78;;;11.05;69.04
76195;BME280;64964;48.694;21.206;2022-11-15T08:27:56;98218.06;;;11.15;68.63
76195;BME280;64964;48.694;21.206;2022-11-15T08:30:23;98213.97;;;11.13;67.72
76195;BME280;64964;48.694;21.206;2022-11-15T08:32:50;98211.31;;;11.05;67.58
76195;BME280;64964;48.694;21.206;2022-11-15T08:35:16;98218.94;;;11.00;68.42
76195;BME280;64964;48.694;21.206;2022-11-15T08:37:41;98218.09;;;10.91;68.92
76195;BME280;64964;48.694;21.206;2022-11-15T08:40:07;98219.91;;;10.82;68.97
76195;BME280;64964;48.694;21.206;2022-11-15T08:42:33;98211.16;;;10.65;68.97
76195;BME280;64964;48.694;21.206;2022-11-15T08:44:59;98213.66;;;10.67;68.89
76195;BME280;64964;48.694;21.206;2022-11-15T08:47:24;98218.44;;;10.55;69.24
76195;BME280;64964;48.694;21.206;2022-11-15T08:49:49;98215.59;;;10.40;69.28
76195;BME280;64964;48.694;21.206;2022-11-15T08:52:15;98209.31;;;10.25;68.94
76195;BME280;64964;48.694;21.206;2022-11-15T08:54:40;98205.09;;;10.14;69.26
76195;BME280;64964;48.694;21.206;2022-11-15T08:57:06;98219.94;;;10.07;69.68
76195;BME280;64964;48.694;21.206;2022-11-15T08:59:32;98216.81;;;10.04;69.61
76195;BME280;64964;48.694;21.206;2022-11-15T09:01:57;98221.91;;;9.97;69.38
76195;BME280;64964;48.694;21.206;2022-11-15T09:04:25;98222.06;;;9.95;69.38
76195;BME280;64964;48.694;21.206;2022-11-15T09:06:51;98210.47;;;9.88;69.54
76195;BME280;64964;48.694;21.206;2022-11-15T09:09:16;98216.41;;;9.90;69.48
76195;BME280;64964;48.694;21.206;2022-11-15T09:11:42;98205.22;;;9.96;69.30
76195;BME280;64964;48.694;21.206;2022-11-15T09:14:07;98198.03;;;10.23;68.97
76195;BME280;64964;48.694;21.206;2022-11-15T09:16:32;98189.69;;;10.60;67.72
76195;BME280;64964;48.694;21.206;2022-11-15T09:18:58;98194.63;;;11.04;67.91
76195;BME280;64964;48.694;21.206;2022-11-15T09:21:23;98177.69;;;11.30;67.51
76195;BME280;64964;48.694;21.206;2022-11-15T09:23:52;98182.56;;;12.05;65.53
76195;BME280;64964;48.694;21.206;2022-11-15T09:26:17;98193.41;;;13.54;62.05
76195;BME280;64964;48.694;21.206;2022-11-15T09:28:43;98192.13;;;13.94;60.17
76195;BME280;64964;48.694;21.206;2022-11-15T09:31:08;98184.97;;;13.95;60.01
76195;BME280;64964;48.694;21.206;2022-11-15T09:33:34;98187.09;;;13.85;59.76
76195;BME280;64964;48.694;21.206;2022-11-15T09:36:07;98169.31;;;13.70;56.70
76195;BME280;64964;48.694;21.206;2022-11-15T09:38:33;98192.09;;;13.20;57.38
76195;BME280;64964;48.694;21.206;2022-11-15T09:41:23;98181.19;;;12.63;59.27
76195;BME280;64964;48.694;21.206;2022-11-15T09:43:55;98182.00;;;12.40;61.39
76195;BME280;64964;48.694;21.206;2022-11-15T09:49:17;98164.53;;;12.92;59.38
76195;BME280;64964;48.694;21.206;2022-11-15T09:51:50;98163.97;;;12.96;59.07
76195;BME280;64964;48.694;21.206;2022-11-15T09:54:36;98149.34;;;13.15;58.11
76195;BME280;64964;48.694;21.206;2022-11-15T09:57:06;98141.81;;;12.89;57.67
76195;BME280;64964;48.694;21.206;2022-11-15T10:05:15;98123.84;;;14.38;59.84
76195;BME280;64964;48.694;21.206;2022-11-15T10:13:00;98124.13;;;14.22;54.67
76195;BME280;64964;48.694;21.206;2022-11-15T10:15:25;98125.34;;;14.04;57.31
76195;BME280;64964;48.694;21.206;2022-11-15T10:20:20;98112.31;;;13.88;57.23
76195;BME280;64964;48.694;21.206;2022-11-15T10:25:18;98109.78;;;13.80;57.32
76195;BME280;64964;48.694;21.206;2022-11-15T10:27:53;98115.66;;;13.60;56.49
76195;BME280;64964;48.694;21.206;2022-11-15T10:30:19;98111.31;;;13.74;58.32
76195;BME280;64964;48.694;21.206;2022-11-15T10:32:46;98130.66;;;14.04;53.19
76195;BME280;64964;48.694;21.206;2022-11-15T10:37:45;98114.75;;;17.78;45.75
76195;BME280;64964;48.694;21.206;2022-11-15T10:40:22;98105.09;;;19.77;40.63
76195;BME280;64964;48.694;21.206;2022-11-15T10:43:04;98103.94;;;20.03;37.87
76195;BME280;64964;48.694;21.206;2022-11-15T10:45:32;98089.72;;;19.48;41.72
76195;BME280;64964;48.694;21.206;2022-11-15T10:50:41;98098.81;;;17.97;48.31
76195;BME280;64964;48.694;21.206;2022-11-15T10:53:32;98094.19;;;17.01;46.06
76195;BME280;64964;48.694;21.206;2022-11-15T10:56:03;98093.34;;;16.34;49.33
76195;BME280;64964;48.694;21.206;2022-11-15T10:58:54;98073.47;;;15.55;49.39
76195;BME280;64964;48.694;21.206;2022-11-15T11:01:28;98077.41;;;15.25;51.54
76195;BME280;64964;48.694;21.206;2022-11-15T11:04:06;98065.66;;;14.78;52.59
76195;BME280;64964;48.694;21.206;2022-11-15T11:09:37;98051.47;;;14.21;54.14
76195;BME280;64964;48.694;21.206;2022-11-15T11:12:05;98057.69;;;14.07;56.11
76195;BME280;64964;48.694;21.206;2022-11-15T11:14:33;98045.78;;;13.60;55.60
76195;BME280;64964;48.694;21.206;2022-11-15T11:17:35;98038.03;;;13.29;56.89
76195;BME280;64964;48.694;21.206;2022-11-15T11:20:22;98035.03;;;13.02;57.41
76195;BME280;64964;48.694;21.206;2022-11-15T11:25:53;98019.63;;;12.38;58.92
76195;BME280;64964;48.694;21.206;2022-11-15T11:37:35;98035.91;;;10.96;64.62
76195;BME280;64964;48.694;21.206;2022-11-15T11:39:55;98020.47;;;10.60;65.73
76195;BME280;64964;48.694;21.206;2022-11-15T11:48:14;98026.13;;;9.92;68.45
76195;BME280;64964;48.694;21.206;2022-11-15T11:50:45;98028.25;;;9.72;69.16
76195;BME280;64964;48.694;21.206;2022-11-15T11:53:36;98011.88;;;9.52;69.91
76195;BME280;64964;48.694;21.206;2022-11-15T11:56:15;98009.75;;;9.56;70.27
76195;BME280;64964;48.694;21.206;2022-11-15T11:58:44;98010.56;;;9.56;68.50
76195;BME280;64964;48.694;21.206;2022-11-15T12:01:17;98017.34;;;9.59;70.00
76195;BME280;64964;48.694;21.206;2022-11-15T12:06:45;98000.34;;;9.69;69.02
76195;BME280;64964;48.694;21.206;2022-11-15T12:09:27;97998.88;;;9.51;70.23
76195;BME280;64964;48.694;21.206;2022-11-15T12:16:58;97957.88;;;9.06;72.03
76195;BME280;64964;48.694;21.206;2022-11-15T12:19:25;97986.91;;;9.14;72.71
76195;BME280;64964;48.694;21.206;2022-11-15T12:22:24;97983.28;;;9.23;72.21
76195;BME280;64964;48.694;21.206;2022-11-15T12:25:04;97983.81;;;9.35;72.41
76195;BME280;64964;48.694;21.206;2022-11-15T12:27:36;97985.13;;;9.31;72.92
76195;BME280;64964;48.694;21.206;2022-11-15T12:30:10;97974.25;;;9.34;72.91
76195;BME280;64964;48.694;21.206;2022-11-15T12:32:38;97955.09;;;9.23;72.01
76195;BME280;64964;48.694;21.206;2022-11-15T12:35:06;97960.38;;;9.23;72.77
76195;BME280;64964;48.694;21.206;2022-11-15T12:37:48;97952.78;;;9.12;72.54
76195;BME280;64964;48.694;21.206;2022-11-15T12:40:27;97949.97;;;9.14;72.95
76195;BME280;64964;48.694;21.206;2022-11-15T12:45:35;97928.22;;;9.04;72.43
76195;BME280;64964;48.694;21.206;2022-11-15T12:53:33;97933.28;;;8.89;74.89
76195;BME280;64964;48.694;21.206;2022-11-15T12:58:39;97910.00;;;8.76;75.43
76195;BME280;64964;48.694;21.206;2022-11-15T13:06:43;97919.91;;;8.82;74.98
76195;BME280;64964;48.694;21.206;2022-11-15T13:14:45;97930.47;;;8.82;73.79
76195;BME280;64964;48.694;21.206;2022-11-15T13:17:24;97927.47;;;8.77;75.63
76195;BME280;64964;48.694;21.206;2022-11-15T13:19:59;97936.66;;;8.73;76.00
76195;BME280;64964;48.694;21.206;2022-11-15T13:22:38;97931.75;;;8.70;76.67
76195;BME280;64964;48.694;21.206;2022-11-15T13:35:42;97891.16;;;9.38;70.04
76195;BME280;64964;48.694;21.206;2022-11-15T13:38:18;97899.59;;;9.58;69.07
76195;BME280;64964;48.694;21.206;2022-11-15T13:40:45;97894.44;;;9.64;69.12
76195;BME280;64964;48.694;21.206;2022-11-15T13:46:13;97899.91;;;9.55;65.63
76195;BME280;64964;48.694;21.206;2022-11-15T13:48:43;97893.63;;;9.56;66.95
76195;BME280;64964;48.694;21.206;2022-11-15T13:53:54;97893.81;;;9.46;66.20
76195;BME280;64964;48.694;21.206;2022-11-15T13:56:21;97898.09;;;9.47;67.52
76195;BME280;64964;48.694;21.206;2022-11-15T13:58:47;97894.44;;;9.40;67.74
76195;BME280;64964;48.694;21.206;2022-11-15T14:01:18;97888.84;;;9.35;67.97
76195;BME280;64964;48.694;21.206;2022-11-15T14:03:57;97892.81;;;9.39;67.16
76195;BME280;64964;48.694;21.206;2022-11-15T14:06:25;97885.22;;;9.44;67.77
76195;BME280;64964;48.694;21.206;2022-11-15T14:11:35;97878.13;;;9.44;66.00
76195;BME280;64964;48.694;21.206;2022-11-15T14:19:03;97873.84;;;9.52;67.17
76195;BME280;64964;48.694;21.206;2022-11-15T14:21:29;97865.28;;;9.50;67.12
76195;BME280;64964;48.694;21.206;2022-11-15T14:24:17;97853.22;;;9.39;66.64
76195;BME280;64964;48.694;21.206;2022-11-15T14:26:43;97869.38;;;9.52;67.28
76195;BME280;64964;48.694;21.206;2022-11-15T14:29:26;97867.91;;;9.41;66.03
76195;BME280;64964;48.694;21.206;2022-11-15T14:32:14;97857.34;;;9.17;66.13
76195;BME280;64964;48.694;21.206;2022-11-15T14:34:38;97874.66;;;9.03;66.58
76195;BME280;64964;48.694;21.206;2022-11-15T14:37:03;97864.22;;;8.85;67.03
76195;BME280;64964;48.694;21.206;2022-11-15T14:39:28;97875.94;;;8.83;67.43
76195;BME280;64964;48.694;21.206;2022-11-15T14:41:54;97872.25;;;8.67;67.64
76195;BME280;64964;48.694;21.206;2022-11-15T14:44:19;97869.59;;;8.59;67.48
76195;BME280;64964;48.694;21.206;2022-11-15T14:46:45;97865.66;;;8.63;68.12
76195;BME280;64964;48.694;21.206;2022-11-15T14:49:11;97864.66;;;8.64;68.30
76195;BME280;64964;48.694;21.206;2022-11-15T14:51:38;97850.66;;;8.64;68.25
76195;BME280;64964;48.694;21.206;2022-11-15T14:54:03;97844.25;;;8.66;68.27
76195;BME280;64964;48.694;21.206;2022-11-15T14:56:28;97837.81;;;8.69;68.47
76195;BME280;64964;48.694;21.206;2022-11-15T14:58:54;97831.59;;;8.70;68.45
76195;BME280;64964;48.694;21.206;2022-11-15T15:01:24;97831.25;;;8.73;68.40
76195;BME280;64964;48.694;21.206;2022-11-15T15:03:50;97826.16;;;8.71;68.30
76195;BME280;64964;48.694;21.206;2022-11-15T15:06:22;97836.03;;;8.69;68.42
76195;BME280;64964;48.694;21.206;2022-11-15T15:08:48;97826.63;;;8.67;68.42
76195;BME280;64964;48.694;21.206;2022-11-15T15:11:23;97830.78;;;8.69;68.54
76195;BME280;64964;48.694;21.206;2022-11-15T15:13:50;97835.69;;;8.72;68.67
76195;BME280;64964;48.694;21.206;2022-11-15T15:16:15;97825.97;;;8.73;68.69
76195;BME280;64964;48.694;21.206;2022-11-15T15:18:41;97830.59;;;8.71;68.79
76195;BME280;64964;48.694;21.206;2022-11-15T15:21:26;97813.13;;;8.62;68.91
76195;BME280;64964;48.694;21.206;2022-11-15T15:23:53;97823.69;;;8.70;69.06